sensor_id;sensor_type;location;lat;lon;timestamp;pressure;altitude;pressure_sealevel;temperature;humidity
5522;BME280;2783;48.730;8.006;2024-03-08T00:00:08;99923.16;;;5.39;100.00
5522;BME280;2783;48.730;8.006;2024-03-08T00:02:40;99920.50;;;5.43;100.00
5522;BME280;2783;48.730;8.006;2024-03-08T00:05:07;99916.13;;;5.42;100.00
5522;BME280;2783;48.730;8.006;2024-03-08T00:07:34;99919.69;;;5.37;100.00
5522;BME280;2783;48.730;8.006;2024-03-08T00:10:03;99919.69;;;5.36;100.00
5522;BME280;2783;48.730;8.006;2024-03-08T00:12:29;99920.63;;;5.33;100.00
5522;BME280;2783;48.730;8.006;2024-03-08T00:14:54;99879.63;;;5.10;100.00
5522;BME280;2783;48.730;8.006;2024-03-08T00:17:23;99915.41;;;5.27;100.00
5522;BME280;2783;48.730;8.006;2024-03-08T00:19:49;99913.72;;;5.23;100.00
5522;BME280;2783;48.730;8.006;2024-03-08T00:22:15;99915.50;;;5.21;100.00
5522;BME280;2783;48.730;8.006;2024-03-08T00:24:41;99896.22;;;5.16;100.00
5522;BME280;2783;48.730;8.006;2024-03-08T00:27:07;99907.56;;;5.23;100.00
5522;BME280;2783;48.730;8.006;2024-03-08T00:29:34;99911.13;;;5.20;100.00
5522;BME280;2783;48.730;8.006;2024-03-08T00:31:59;99905.84;;;5.22;100.00
5522;BME280;2783;48.730;8.006;2024-03-08T00:34:25;99910.22;;;5.21;100.00
5522;BME280;2783;48.730;8.006;2024-03-08T00:36:50;99898.84;;;5.18;100.00
5522;BME280;2783;48.730;8.006;2024-03-08T00:39:18;99824.03;;;4.63;100.00
5522;BME280;2783;48.730;8.006;2024-03-08T00:41:45;99898.19;;;5.02;100.00
5522;BME280;2783;48.730;8.006;2024-03-08T00:44:10;99892.91;;;5.01;100.00
5522;BME280;2783;48.730;8.006;2024-03-08T00:46:36;99891.22;;;4.95;100.00
5522;BME280;2783;48.730;8.006;2024-03-08T00:49:01;99894.78;;;4.91;100.00
5522;BME280;2783;48.730;8.006;2024-03-08T00:51:26;99851.19;;;4.65;100.00
5522;BME280;2783;48.730;8.006;2024-03-08T00:53:52;99891.31;;;4.86;100.00
5522;BME280;2783;48.730;8.006;2024-03-08T00:56:17;99879.94;;;4.86;100.00
5522;BME280;2783;48.730;8.006;2024-03-08T00:58:43;99880.91;;;4.77;100.00
5522;BME280;2783;48.730;8.006;2024-03-08T01:01:08;99877.41;;;4.75;100.00
5522;BME280;2783;48.730;8.006;2024-03-08T01:03:35;99879.22;;;4.70;100.00
5522;BME280;2783;48.730;8.006;2024-03-08T01:06:01;99871.44;;;4.63;100.00
5522;BME280;2783;48.730;8.006;2024-03-08T01:08:27;99876.66;;;4.66;100.00
5522;BME280;2783;48.730;8.006;2024-03-08T01:10:53;99867.88;;;4.65;100.00
5522;BME280;2783;48.730;8.006;2024-03-08T01:13:18;99867.91;;;4.62;100.00
5522;BME280;2783;48.730;8.006;2024-03-08T01:15:44;99865.25;;;4.65;100.00
5522;BME280;2783;48.730;8.006;2024-03-08T01:18:10;99860.00;;;4.62;100.00
5522;BME280;2783;48.730;8.006;2024-03-08T01:20:35;99860.91;;;4.60;100.00
5522;BME280;2783;48.730;8.006;2024-03-08T01:23:01;99859.19;;;4.57;100.00
5522;BME280;2783;48.730;8.006;2024-03-08T01:25:26;99846.91;;;4.55;100.00
5522;BME280;2783;48.730;8.006;2024-03-08T01:27:52;99805.13;;;4.26;100.00
5522;BME280;2783;48.730;8.006;2024-03-08T01:30:19;99836.50;;;4.46;100.00
5522;BME280;2783;48.730;8.006;2024-03-08T01:32:45;99822.53;;;4.38;100.00
5522;BME280;2783;48.730;8.006;2024-03-08T01:35:10;99835.69;;;4.39;100.00
5522;BME280;2783;48.730;8.006;2024-03-08T01:37:36;99837.44;;;4.39;100.00
5522;BME280;2783;48.730;8.006;2024-03-08T01:40:02;99829.53;;;4.39;100.00
5522;BME280;2783;48.730;8.006;2024-03-08T01:42:28;99830.44;;;4.39;100.00
5522;BME280;2783;48.730;8.006;2024-03-08T01:44:54;99822.53;;;4.38;100.00
5522;BME280;2783;48.730;8.006;2024-03-08T01:47:21;99817.31;;;4.35;100.00
5522;BME280;2783;48.730;8.006;2024-03-08T01:49:49;99825.19;;;4.36;100.00
5522;BME280;2783;48.730;8.006;2024-03-08T01:52:15;99819.09;;;4.31;100.00
5522;BME280;2783;48.730;8.006;2024-03-08T01:54:41;99800.72;;;4.28;100.00
5522;BME280;2783;48.730;8.006;2024-03-08T01:57:07;99781.63;;;4.08;100.00
5522;BME280;2783;48.730;8.006;2024-03-08T01:59:33;99801.56;;;4.30;100.00
5522;BME280;2783;48.730;8.006;2024-03-08T02:02:01;99793.69;;;4.27;100.00
5522;BME280;2783;48.730;8.006;2024-03-08T02:04:29;99794.63;;;4.23;100.00
5522;BME280;2783;48.730;8.006;2024-03-08T02:06:56;99795.47;;;4.28;100.00
5522;BME280;2783;48.730;8.006;2024-03-08T02:09:23;99791.03;;;4.30;100.00
5522;BME280;2783;48.730;8.006;2024-03-08T02:11:50;99780.50;;;4.29;100.00
5522;BME280;2783;48.730;8.006;2024-03-08T02:14:17;99776.13;;;4.29;100.00
5522;BME280;2783;48.730;8.006;2024-03-08T02:16:44;99775.19;;;4.32;100.00
5522;BME280;2783;48.730;8.006;2024-03-08T02:19:09;99774.34;;;4.31;100.00
5522;BME280;2783;48.730;8.006;2024-03-08T02:21:35;99774.34;;;4.31;100.00
5522;BME280;2783;48.730;8.006;2024-03-08T02:24:01;99769.13;;;4.28;100.00
5522;BME280;2783;48.730;8.006;2024-03-08T02:26:27;99766.41;;;4.36;100.00
5522;BME280;2783;48.730;8.006;2024-03-08T02:28:53;99760.25;;;4.35;100.00
5522;BME280;2783;48.730;8.006;2024-03-08T02:31:19;99754.16;;;4.32;100.00
5522;BME280;2783;48.730;8.006;2024-03-08T02:33:44;99767.28;;;4.36;100.00
5522;BME280;2783;48.730;8.006;2024-03-08T02:36:12;99763.81;;;4.31;100.00
5522;BME280;2783;48.730;8.006;2024-03-08T02:38:38;99757.72;;;4.28;100.00
5522;BME280;2783;48.730;8.006;2024-03-08T02:41:06;99755.94;;;4.31;100.00
5522;BME280;2783;48.730;8.006;2024-03-08T02:43:31;99751.53;;;4.30;100.00
5522;BME280;2783;48.730;8.006;2024-03-08T02:45:57;99753.28;;;4.31;100.00
5522;BME280;2783;48.730;8.006;2024-03-08T02:48:22;99705.38;;;4.00;100.00
5522;BME280;2783;48.730;8.006;2024-03-08T02:50:48;99751.63;;;4.24;100.00
5522;BME280;2783;48.730;8.006;2024-03-08T02:53:13;99753.47;;;4.16;100.00
5522;BME280;2783;48.730;8.006;2024-03-08T02:55:39;99743.84;;;4.12;100.00
5522;BME280;2783;48.730;8.006;2024-03-08T02:58:06;99741.28;;;4.06;100.00
5522;BME280;2783;48.730;8.006;2024-03-08T03:00:35;99675.19;;;3.59;100.00
5522;BME280;2783;48.730;8.006;2024-03-08T03:03:01;99732.66;;;3.95;100.00
5522;BME280;2783;48.730;8.006;2024-03-08T03:05:28;99690.91;;;3.62;100.00
5522;BME280;2783;48.730;8.006;2024-03-08T03:07:55;99717.16;;;3.68;100.00
5522;BME280;2783;48.730;8.006;2024-03-08T03:10:20;99747.72;;;3.78;100.00
5522;BME280;2783;48.730;8.006;2024-03-08T03:12:47;99740.75;;;3.72;100.00
5522;BME280;2783;48.730;8.006;2024-03-08T03:15:16;99734.69;;;3.69;100.00
5522;BME280;2783;48.730;8.006;2024-03-08T03:17:48;99693.75;;;3.41;100.00
5522;BME280;2783;48.730;8.006;2024-03-08T03:20:14;99700.81;;;3.37;100.00
5522;BME280;2783;48.730;8.006;2024-03-08T03:22:40;99736.50;;;3.61;100.00
5522;BME280;2783;48.730;8.006;2024-03-08T03:25:07;99701.72;;;3.32;100.00
5522;BME280;2783;48.730;8.006;2024-03-08T03:27:34;99726.97;;;3.48;100.00
5522;BME280;2783;48.730;8.006;2024-03-08T03:30:00;99731.34;;;3.52;100.00
5522;BME280;2783;48.730;8.006;2024-03-08T03:32:46;99721.69;;;3.52;100.00
5522;BME280;2783;48.730;8.006;2024-03-08T03:35:13;99728.72;;;3.50;100.00
5522;BME280;2783;48.730;8.006;2024-03-08T03:37:38;99719.09;;;3.48;100.00
5522;BME280;2783;48.730;8.006;2024-03-08T03:40:05;99717.34;;;3.47;100.00
5522;BME280;2783;48.730;8.006;2024-03-08T03:42:31;99723.56;;;3.37;100.00
5522;BME280;2783;48.730;8.006;2024-03-08T03:44:56;99728.00;;;3.32;100.00
5522;BME280;2783;48.730;8.006;2024-03-08T03:47:22;99710.53;;;3.25;100.00
5522;BME280;2783;48.730;8.006;2024-03-08T03:49:47;99707.00;;;3.29;100.00
5522;BME280;2783;48.730;8.006;2024-03-08T03:52:12;99718.31;;;3.37;100.00
5522;BME280;2783;48.730;8.006;2024-03-08T03:54:38;99712.22;;;3.32;100.00
5522;BME280;2783;48.730;8.006;2024-03-08T03:57:04;99718.41;;;3.28;100.00
5522;BME280;2783;48.730;8.006;2024-03-08T03:59:29;99701.78;;;3.26;100.00
5522;BME280;2783;48.730;8.006;2024-03-08T04:01:55;99715.78;;;3.28;100.00
5522;BME280;2783;48.730;8.006;2024-03-08T04:04:21;99711.38;;;3.27;100.00
5522;BME280;2783;48.730;8.006;2024-03-08T04:06:46;99712.28;;;3.26;100.00
5522;BME280;2783;48.730;8.006;2024-03-08T04:09:12;99706.22;;;3.18;100.00
5522;BME280;2783;48.730;8.006;2024-03-08T04:11:39;99705.38;;;3.14;100.00
5522;BME280;2783;48.730;8.006;2024-03-08T04:14:04;99708.88;;;3.12;100.00
5522;BME280;2783;48.730;8.006;2024-03-08T04:16:30;99707.22;;;3.05;100.00
5522;BME280;2783;48.730;8.006;2024-03-08T04:18:57;99701.94;;;3.03;100.00
5522;BME280;2783;48.730;8.006;2024-03-08T04:21:22;99694.13;;;2.97;100.00
5522;BME280;2783;48.730;8.006;2024-03-08T04:23:47;99700.25;;;2.99;100.00
5522;BME280;2783;48.730;8.006;2024-03-08T04:26:13;99693.22;;;2.97;100.00
5522;BME280;2783;48.730;8.006;2024-03-08T04:28:39;99693.31;;;2.89;100.00
5522;BME280;2783;48.730;8.006;2024-03-08T04:31:05;99688.94;;;2.90;100.00
5522;BME280;2783;48.730;8.006;2024-03-08T04:33:30;99690.69;;;2.88;100.00
5522;BME280;2783;48.730;8.006;2024-03-08T04:35:55;99688.91;;;2.91;100.00
5522;BME280;2783;48.730;8.006;2024-03-08T04:38:21;99689.75;;;2.98;100.00
5522;BME280;2783;48.730;8.006;2024-03-08T04:40:49;99687.13;;;2.98;100.00
5522;BME280;2783;48.730;8.006;2024-03-08T04:43:14;99687.09;;;2.99;100.00
5522;BME280;2783;48.730;8.006;2024-03-08T04:45:40;99689.72;;;3.01;100.00
5522;BME280;2783;48.730;8.006;2024-03-08T04:48:07;99690.56;;;3.04;100.00
5522;BME280;2783;48.730;8.006;2024-03-08T04:50:33;99682.66;;;3.06;100.00
5522;BME280;2783;48.730;8.006;2024-03-08T04:52:59;99681.81;;;3.02;100.00
5522;BME280;2783;48.730;8.006;2024-03-08T04:55:24;99687.13;;;2.98;100.00
5522;BME280;2783;48.730;8.006;2024-03-08T04:57:50;99685.34;;;2.97;100.00
5522;BME280;2783;48.730;8.006;2024-03-08T05:00:16;99676.63;;;2.96;100.00
5522;BME280;2783;48.730;8.006;2024-03-08T05:02:41;99687.13;;;2.98;100.00
5522;BME280;2783;48.730;8.006;2024-03-08T05:05:08;99692.34;;;2.99;100.00
5522;BME280;2783;48.730;8.006;2024-03-08T05:07:40;99683.56;;;3.02;100.00
5522;BME280;2783;48.730;8.006;2024-03-08T05:10:06;99681.88;;;2.98;100.00
5522;BME280;2783;48.730;8.006;2024-03-08T05:12:34;99680.94;;;3.00;100.00
5522;BME280;2783;48.730;8.006;2024-03-08T05:15:00;99683.59;;;2.97;100.00
5522;BME280;2783;48.730;8.006;2024-03-08T05:17:25;99684.50;;;2.98;100.00
5522;BME280;2783;48.730;8.006;2024-03-08T05:19:51;99689.72;;;3.01;100.00
5522;BME280;2783;48.730;8.006;2024-03-08T05:22:16;99682.72;;;3.00;100.00
5522;BME280;2783;48.730;8.006;2024-03-08T05:24:42;99685.31;;;3.03;100.00
5522;BME280;2783;48.730;8.006;2024-03-08T05:27:08;99681.84;;;2.99;100.00
5522;BME280;2783;48.730;8.006;2024-03-08T05:29:34;99679.25;;;2.95;100.00
5522;BME280;2783;48.730;8.006;2024-03-08T05:31:59;99674.03;;;2.89;100.00
5522;BME280;2783;48.730;8.006;2024-03-08T05:34:25;99675.81;;;2.87;100.00
5522;BME280;2783;48.730;8.006;2024-03-08T05:36:51;99672.31;;;2.86;100.00
5522;BME280;2783;48.730;8.006;2024-03-08T05:39:17;99677.53;;;2.89;100.00
5522;BME280;2783;48.730;8.006;2024-03-08T05:41:44;99681.09;;;2.87;100.00
5522;BME280;2783;48.730;8.006;2024-03-08T05:44:10;99672.31;;;2.88;100.00
5522;BME280;2783;48.730;8.006;2024-03-08T05:46:36;99672.31;;;2.88;100.00
5522;BME280;2783;48.730;8.006;2024-03-08T05:49:06;99666.22;;;2.83;100.00
5522;BME280;2783;48.730;8.006;2024-03-08T05:51:34;99633.97;;;2.62;100.00
5522;BME280;2783;48.730;8.006;2024-03-08T05:54:04;99679.31;;;2.86;100.00
5522;BME280;2783;48.730;8.006;2024-03-08T05:56:33;99668.81;;;2.86;100.00
5522;BME280;2783;48.730;8.006;2024-03-08T05:58:59;99674.06;;;2.87;100.00
5522;BME280;2783;48.730;8.006;2024-03-08T06:01:25;99666.16;;;2.93;100.00
5522;BME280;2783;48.730;8.006;2024-03-08T06:03:52;99649.63;;;2.78;100.00
5522;BME280;2783;48.730;8.006;2024-03-08T06:06:19;99670.53;;;2.93;100.00
5522;BME280;2783;48.730;8.006;2024-03-08T06:08:46;99670.50;;;2.94;100.00
5522;BME280;2783;48.730;8.006;2024-03-08T06:11:14;99676.59;;;2.98;100.00
5522;BME280;2783;48.730;8.006;2024-03-08T06:13:40;99677.38;;;3.09;100.00
5522;BME280;2783;48.730;8.006;2024-03-08T06:16:05;99675.41;;;3.35;100.00
5522;BME280;2783;48.730;8.006;2024-03-08T06:18:36;99675.84;;;3.77;100.00
5522;BME280;2783;48.730;8.006;2024-03-08T06:21:05;99662.25;;;4.12;100.00
5522;BME280;2783;48.730;8.006;2024-03-08T06:23:34;99661.81;;;4.45;100.00
5522;BME280;2783;48.730;8.006;2024-03-08T06:26:04;99630.13;;;4.54;100.00
5522;BME280;2783;48.730;8.006;2024-03-08T06:28:29;99662.72;;;5.03;100.00
5522;BME280;2783;48.730;8.006;2024-03-08T06:30:55;99662.69;;;5.54;100.00
5522;BME280;2783;48.730;8.006;2024-03-08T06:33:20;99655.44;;;6.12;100.00
5522;BME280;2783;48.730;8.006;2024-03-08T06:35:46;99661.63;;;6.90;100.00
5522;BME280;2783;48.730;8.006;2024-03-08T06:38:11;99663.66;;;7.49;100.00
5522;BME280;2783;48.730;8.006;2024-03-08T06:40:37;99651.00;;;7.92;100.00
5522;BME280;2783;48.730;8.006;2024-03-08T06:43:02;99608.09;;;8.11;96.81
5522;BME280;2783;48.730;8.006;2024-03-08T06:45:31;99659.88;;;8.53;89.48
5522;BME280;2783;48.730;8.006;2024-03-08T06:47:56;99664.09;;;8.60;88.62
5522;BME280;2783;48.730;8.006;2024-03-08T06:50:22;99670.50;;;9.08;84.73
5522;BME280;2783;48.730;8.006;2024-03-08T06:52:47;99661.84;;;10.04;83.42
5522;BME280;2783;48.730;8.006;2024-03-08T06:55:19;99615.34;;;10.85;77.81
5522;BME280;2783;48.730;8.006;2024-03-08T06:57:44;99657.56;;;11.99;73.00
5522;BME280;2783;48.730;8.006;2024-03-08T07:00:10;99652.03;;;12.79;65.19
5522;BME280;2783;48.730;8.006;2024-03-08T07:02:38;99658.44;;;13.48;61.03
5522;BME280;2783;48.730;8.006;2024-03-08T07:05:05;99656.34;;;14.06;55.64
5522;BME280;2783;48.730;8.006;2024-03-08T07:07:31;99660.84;;;14.55;54.33
5522;BME280;2783;48.730;8.006;2024-03-08T07:09:57;99648.44;;;15.16;51.09
5522;BME280;2783;48.730;8.006;2024-03-08T07:12:22;99657.19;;;15.20;48.47
5522;BME280;2783;48.730;8.006;2024-03-08T07:14:48;99658.47;;;15.28;48.37
5522;BME280;2783;48.730;8.006;2024-03-08T07:17:14;99647.63;;;15.91;48.00
5522;BME280;2783;48.730;8.006;2024-03-08T07:19:39;99653.22;;;16.45;46.03
5522;BME280;2783;48.730;8.006;2024-03-08T07:22:05;99617.44;;;16.73;44.88
5522;BME280;2783;48.730;8.006;2024-03-08T07:24:35;99647.44;;;17.34;43.89
5522;BME280;2783;48.730;8.006;2024-03-08T07:27:19;99639.31;;;17.75;42.37
5522;BME280;2783;48.730;8.006;2024-03-08T07:29:44;99645.81;;;17.97;41.84
5522;BME280;2783;48.730;8.006;2024-03-08T07:32:11;99644.91;;;17.84;42.12
5522;BME280;2783;48.730;8.006;2024-03-08T07:34:50;99639.63;;;17.70;41.91
5522;BME280;2783;48.730;8.006;2024-03-08T07:37:17;99634.53;;;18.17;41.01
5522;BME280;2783;48.730;8.006;2024-03-08T07:39:43;99633.41;;;18.47;41.41
5522;BME280;2783;48.730;8.006;2024-03-08T07:42:11;99633.06;;;18.51;40.00
5522;BME280;2783;48.730;8.006;2024-03-08T07:44:37;99632.22;;;18.63;40.79
5522;BME280;2783;48.730;8.006;2024-03-08T07:47:03;99605.75;;;18.81;40.22
5522;BME280;2783;48.730;8.006;2024-03-08T07:49:29;99627.06;;;18.96;39.33
5522;BME280;2783;48.730;8.006;2024-03-08T07:51:55;99625.47;;;18.94;38.49
5522;BME280;2783;48.730;8.006;2024-03-08T07:54:21;99620.94;;;18.94;39.31
5522;BME280;2783;48.730;8.006;2024-03-08T07:56:47;99629.78;;;18.84;39.15
5522;BME280;2783;48.730;8.006;2024-03-08T07:59:12;99624.91;;;19.37;38.87
5522;BME280;2783;48.730;8.006;2024-03-08T08:01:38;99621.19;;;19.15;39.38
5522;BME280;2783;48.730;8.006;2024-03-08T08:04:03;99622.47;;;19.22;39.51
5522;BME280;2783;48.730;8.006;2024-03-08T08:06:29;99614.59;;;19.55;38.68
5522;BME280;2783;48.730;8.006;2024-03-08T08:08:58;99602.78;;;19.56;39.21
5522;BME280;2783;48.730;8.006;2024-03-08T08:11:26;99614.47;;;19.56;38.61
5522;BME280;2783;48.730;8.006;2024-03-08T08:13:53;99605.84;;;19.75;38.03
5522;BME280;2783;48.730;8.006;2024-03-08T08:16:20;99617.63;;;19.85;38.57
5522;BME280;2783;48.730;8.006;2024-03-08T08:18:45;99610.31;;;19.98;37.63
5522;BME280;2783;48.730;8.006;2024-03-08T08:21:11;99614.38;;;19.69;38.59
5522;BME280;2783;48.730;8.006;2024-03-08T08:23:36;99601.41;;;19.74;37.56
5522;BME280;2783;48.730;8.006;2024-03-08T08:26:03;99607.25;;;19.57;38.19
5522;BME280;2783;48.730;8.006;2024-03-08T08:28:28;99585.06;;;19.41;37.94
5522;BME280;2783;48.730;8.006;2024-03-08T08:30:54;99598.28;;;18.97;39.24
5522;BME280;2783;48.730;8.006;2024-03-08T08:33:20;99603.44;;;19.00;39.57
5522;BME280;2783;48.730;8.006;2024-03-08T08:35:45;99601.25;;;19.17;39.88
5522;BME280;2783;48.730;8.006;2024-03-08T08:38:13;99601.03;;;19.08;39.58
5522;BME280;2783;48.730;8.006;2024-03-08T08:40:38;99598.28;;;18.97;39.46
5522;BME280;2783;48.730;8.006;2024-03-08T08:43:04;99550.97;;;18.31;39.62
5522;BME280;2783;48.730;8.006;2024-03-08T08:45:32;99590.94;;;18.63;40.12
5522;BME280;2783;48.730;8.006;2024-03-08T08:47:58;99585.44;;;18.64;39.94
5522;BME280;2783;48.730;8.006;2024-03-08T08:50:27;99594.69;;;18.22;40.00
5522;BME280;2783;48.730;8.006;2024-03-08T08:52:54;99586.94;;;18.05;39.92
5522;BME280;2783;48.730;8.006;2024-03-08T08:55:19;99589.50;;;18.32;41.38
5522;BME280;2783;48.730;8.006;2024-03-08T08:57:51;99589.19;;;18.24;40.31
5522;BME280;2783;48.730;8.006;2024-03-08T09:00:20;99579.41;;;18.23;41.93
5522;BME280;2783;48.730;8.006;2024-03-08T09:02:46;99586.91;;;18.68;40.94
5522;BME280;2783;48.730;8.006;2024-03-08T09:05:13;99578.44;;;18.49;39.45
5522;BME280;2783;48.730;8.006;2024-03-08T09:07:45;99577.91;;;18.31;40.37
5522;BME280;2783;48.730;8.006;2024-03-08T09:10:10;99585.00;;;18.20;40.39
5522;BME280;2783;48.730;8.006;2024-03-08T09:12:38;99552.59;;;18.21;40.31
5522;BME280;2783;48.730;8.006;2024-03-08T09:15:05;99576.16;;;18.30;40.07
5522;BME280;2783;48.730;8.006;2024-03-08T09:17:30;99570.69;;;18.19;40.24
5522;BME280;2783;48.730;8.006;2024-03-08T09:19:57;99575.50;;;18.27;40.94
5522;BME280;2783;48.730;8.006;2024-03-08T09:22:22;99567.78;;;18.35;40.98
5522;BME280;2783;48.730;8.006;2024-03-08T09:24:48;99565.16;;;18.33;41.02
5522;BME280;2783;48.730;8.006;2024-03-08T09:27:13;99572.50;;;18.19;41.62
5522;BME280;2783;48.730;8.006;2024-03-08T09:29:39;99564.34;;;17.95;40.54
5522;BME280;2783;48.730;8.006;2024-03-08T09:32:04;99562.69;;;17.93;40.48
5522;BME280;2783;48.730;8.006;2024-03-08T09:34:30;99531.59;;;17.76;40.39
5522;BME280;2783;48.730;8.006;2024-03-08T09:36:55;99551.59;;;17.97;42.21
5522;BME280;2783;48.730;8.006;2024-03-08T09:39:21;99547.53;;;18.04;40.32
5522;BME280;2783;48.730;8.006;2024-03-08T09:41:47;99544.28;;;17.74;41.42
5522;BME280;2783;48.730;8.006;2024-03-08T09:44:15;99549.91;;;17.96;42.48
5522;BME280;2783;48.730;8.006;2024-03-08T09:46:42;99553.13;;;18.01;42.07
5522;BME280;2783;48.730;8.006;2024-03-08T09:49:07;99547.06;;;18.35;41.58
5522;BME280;2783;48.730;8.006;2024-03-08T09:51:34;99545.25;;;18.49;41.05
5522;BME280;2783;48.730;8.006;2024-03-08T09:54:03;99541.31;;;18.78;39.07
5522;BME280;2783;48.730;8.006;2024-03-08T09:56:34;99534.59;;;18.09;39.68
5522;BME280;2783;48.730;8.006;2024-03-08T09:59:00;99531.41;;;17.40;40.93
5522;BME280;2783;48.730;8.006;2024-03-08T10:01:44;99501.22;;;17.74;42.68
5522;BME280;2783;48.730;8.006;2024-03-08T10:04:10;99526.66;;;18.08;41.82
5522;BME280;2783;48.730;8.006;2024-03-08T10:06:36;99517.59;;;18.70;41.36
5522;BME280;2783;48.730;8.006;2024-03-08T10:09:02;99512.75;;;18.75;41.21
5522;BME280;2783;48.730;8.006;2024-03-08T10:11:27;99505.66;;;18.62;39.87
5522;BME280;2783;48.730;8.006;2024-03-08T10:13:53;99508.06;;;18.54;40.27
5522;BME280;2783;48.730;8.006;2024-03-08T10:16:18;99504.94;;;18.83;40.19
5522;BME280;2783;48.730;8.006;2024-03-08T10:18:45;99502.47;;;19.51;38.78
5522;BME280;2783;48.730;8.006;2024-03-08T10:21:11;99478.44;;;19.48;37.58
5522;BME280;2783;48.730;8.006;2024-03-08T10:23:37;99483.31;;;19.43;38.41
5522;BME280;2783;48.730;8.006;2024-03-08T10:26:12;99499.59;;;19.30;39.28
5522;BME280;2783;48.730;8.006;2024-03-08T10:28:51;99491.88;;;19.13;39.71
5522;BME280;2783;48.730;8.006;2024-03-08T10:31:19;99491.13;;;19.35;39.35
5522;BME280;2783;48.730;8.006;2024-03-08T10:33:47;99497.53;;;19.34;38.62
5522;BME280;2783;48.730;8.006;2024-03-08T10:36:15;99479.13;;;19.39;37.40
5522;BME280;2783;48.730;8.006;2024-03-08T10:38:42;99497.59;;;19.32;40.38
5522;BME280;2783;48.730;8.006;2024-03-08T10:41:12;99472.81;;;18.57;39.15
5522;BME280;2783;48.730;8.006;2024-03-08T10:46:30;99474.13;;;18.87;39.40
5522;BME280;2783;48.730;8.006;2024-03-08T10:49:00;99466.75;;;19.36;41.67
5522;BME280;2783;48.730;8.006;2024-03-08T10:51:30;99470.00;;;19.63;39.71
5522;BME280;2783;48.730;8.006;2024-03-08T10:53:57;99435.91;;;19.28;39.79
5522;BME280;2783;48.730;8.006;2024-03-08T10:56:22;99472.63;;;19.30;40.08
5522;BME280;2783;48.730;8.006;2024-03-08T10:58:48;99468.66;;;19.58;40.20
5522;BME280;2783;48.730;8.006;2024-03-08T11:01:14;99466.81;;;19.70;39.23
5522;BME280;2783;48.730;8.006;2024-03-08T11:06:08;99448.06;;;19.57;39.47
5522;BME280;2783;48.730;8.006;2024-03-08T11:08:39;99477.03;;;19.99;39.11
5522;BME280;2783;48.730;8.006;2024-03-08T11:11:05;99457.16;;;19.89;38.15
5522;BME280;2783;48.730;8.006;2024-03-08T11:16:11;99450.06;;;20.32;39.59
5522;BME280;2783;48.730;8.006;2024-03-08T11:18:37;99441.16;;;20.63;39.13
5522;BME280;2783;48.730;8.006;2024-03-08T11:21:12;99446.03;;;20.69;36.67
5522;BME280;2783;48.730;8.006;2024-03-08T11:23:38;99440.47;;;20.28;39.06
5522;BME280;2783;48.730;8.006;2024-03-08T11:26:24;99438.75;;;20.38;38.56
5522;BME280;2783;48.730;8.006;2024-03-08T11:28:50;99438.50;;;20.52;39.21
5522;BME280;2783;48.730;8.006;2024-03-08T11:33:47;99442.28;;;20.92;39.81
5522;BME280;2783;48.730;8.006;2024-03-08T11:36:21;99439.31;;;20.95;38.55
5522;BME280;2783;48.730;8.006;2024-03-08T11:38:48;99428.22;;;20.78;38.58
5522;BME280;2783;48.730;8.006;2024-03-08T11:41:22;99427.22;;;20.14;38.01
5522;BME280;2783;48.730;8.006;2024-03-08T11:43:50;99418.03;;;20.28;40.56
5522;BME280;2783;48.730;8.006;2024-03-08T11:46:26;99412.63;;;20.70;38.81
5522;BME280;2783;48.730;8.006;2024-03-08T11:48:54;99416.69;;;21.08;38.93
5522;BME280;2783;48.730;8.006;2024-03-08T11:51:21;99410.47;;;20.53;38.76
5522;BME280;2783;48.730;8.006;2024-03-08T11:53:49;99403.97;;;20.87;37.89
5522;BME280;2783;48.730;8.006;2024-03-08T11:56:16;99405.66;;;21.00;38.33
5522;BME280;2783;48.730;8.006;2024-03-08T11:58:53;99397.41;;;21.01;38.28
5522;BME280;2783;48.730;8.006;2024-03-08T12:01:22;99391.63;;;20.63;40.08
5522;BME280;2783;48.730;8.006;2024-03-08T12:03:56;99392.78;;;20.92;39.32
5522;BME280;2783;48.730;8.006;2024-03-08T12:06:26;99380.31;;;21.01;38.87
5522;BME280;2783;48.730;8.006;2024-03-08T12:08:52;99378.09;;;20.74;39.47
5522;BME280;2783;48.730;8.006;2024-03-08T12:11:19;99373.03;;;20.80;38.06
5522;BME280;2783;48.730;8.006;2024-03-08T12:13:48;99367.38;;;20.52;38.15
5522;BME280;2783;48.730;8.006;2024-03-08T12:16:17;99372.59;;;20.33;39.01
5522;BME280;2783;48.730;8.006;2024-03-08T12:18:47;99336.03;;;20.49;40.14
5522;BME280;2783;48.730;8.006;2024-03-08T12:21:13;99358.88;;;20.56;39.18
5522;BME280;2783;48.730;8.006;2024-03-08T12:23:42;99359.72;;;20.57;38.48
5522;BME280;2783;48.730;8.006;2024-03-08T12:26:14;99357.91;;;20.57;39.53
5522;BME280;2783;48.730;8.006;2024-03-08T12:28:42;99350.69;;;20.78;38.03
5522;BME280;2783;48.730;8.006;2024-03-08T12:31:11;99342.97;;;20.94;39.65
5522;BME280;2783;48.730;8.006;2024-03-08T12:33:53;99340.22;;;21.06;39.07
5522;BME280;2783;48.730;8.006;2024-03-08T12:36:20;99342.03;;;20.84;37.24
5522;BME280;2783;48.730;8.006;2024-03-08T12:38:48;99301.91;;;20.48;38.81
5522;BME280;2783;48.730;8.006;2024-03-08T12:41:17;99328.06;;;20.48;38.14
5522;BME280;2783;48.730;8.006;2024-03-08T12:43:44;99326.06;;;20.29;40.43
5522;BME280;2783;48.730;8.006;2024-03-08T12:46:20;99318.66;;;20.31;40.03
5522;BME280;2783;48.730;8.006;2024-03-08T12:48:46;99321.66;;;20.17;38.95
5522;BME280;2783;48.730;8.006;2024-03-08T12:51:16;99303.94;;;19.59;40.00
5522;BME280;2783;48.730;8.006;2024-03-08T12:53:43;99286.38;;;19.76;40.35
5522;BME280;2783;48.730;8.006;2024-03-08T12:56:10;99284.56;;;19.77;40.06
5522;BME280;2783;48.730;8.006;2024-03-08T12:58:36;99291.31;;;19.38;40.24
5522;BME280;2783;48.730;8.006;2024-03-08T13:01:02;99278.31;;;19.65;42.00
5522;BME280;2783;48.730;8.006;2024-03-08T13:03:30;99269.97;;;20.11;40.75
5522;BME280;2783;48.730;8.006;2024-03-08T13:05:56;99275.63;;;19.65;39.49
5522;BME280;2783;48.730;8.006;2024-03-08T13:08:22;99268.47;;;19.75;40.99
5522;BME280;2783;48.730;8.006;2024-03-08T13:10:50;99271.28;;;19.74;40.79
5522;BME280;2783;48.730;8.006;2024-03-08T13:13:16;99256.50;;;19.57;41.68
5522;BME280;2783;48.730;8.006;2024-03-08T13:15:42;99259.41;;;19.76;41.26
5522;BME280;2783;48.730;8.006;2024-03-08T13:18:07;99250.81;;;19.71;39.25
5522;BME280;2783;48.730;8.006;2024-03-08T13:20:34;99251.22;;;19.44;40.96
5522;BME280;2783;48.730;8.006;2024-03-08T13:23:03;99261.41;;;19.30;41.48
5522;BME280;2783;48.730;8.006;2024-03-08T13:25:30;99265.03;;;19.18;40.43
5522;BME280;2783;48.730;8.006;2024-03-08T13:27:55;99256.81;;;19.75;41.82
5522;BME280;2783;48.730;8.006;2024-03-08T13:30:22;99253.50;;;20.14;38.98